メインページ
METAR-TAF:

METAR-TAF

空港 :

チュニス, チュニジア

チュニス・カルタゴ国際空港

緯度: 36-50N, 経度: 010-14E, 海抜: 3m

現時点の気象観測

当レポートは30分前の23:30(UTC)に作成
北/北西の風 7kt
気温 12°C
湿度 88%
気圧 1006 hPa
視程10km以上
高度2300ftの雲は散在している

METAR: DTTA 242330Z 33007KT 9999 SCT023 12/10 Q1006 NOSIG

時間: 01:00 (00:00 UTC)

予報

当レポートは6時間58分前の17:02(UTC)に作成
予報は24日の 18時(UTC)から 25日の 18時(UTC)まで有効
東/南東の風 6kt
視程10km以上
高度2300ftの雲は散在している
24日の 18時(UTC)から 25日の 08時(UTC)まで一時的に
視程: 3000m
高度2600ftの雲はほとんどない, 積乱雲.
小雨
24日の 22時(UTC)から 24日の 24時(UTC)まで徐々に
の風 12kt
25日の 04時(UTC)から 25日の 06時(UTC)まで徐々に
西の風 12kt

TAF: DTTA 241702Z 2418/2518 12006KT 9999 SCT023 TEMPO 2418/2508 3000 -RA FEW026CB BECMG 2422/2424 01012KT BECMG 2504/2506 28012KT

4,000以上の空港の気象観測と天気予報(METAR報とTAF報)

利用可能な観測所は地図上に黄色い丸と赤い丸で示す。

丸の上にカーソルを重ねると観測所名を参照できる。

次にクリックすると気象観測と天気予報を参照できる。

マップの切り替え:黒色「×」印の緑ボタンをクリックして拡大、「-」印の緑ボタンをクリックして縮小、緑色の三角印をクリックして隣りの地図に切り替え


METAR-TAF: